Time;durP1;ratioP1;P1;durP2;ratioP2;P2;SDS_P1;SDS_P2;PMS_P1;PMS_P2;Temp;Humidity;BMP_temperature;BMP_pressure;BME280_temperature;BME280_humidity;BME280_pressure;Samples;Min_cycle;Max_cycle;Signal;HPM_P1;HPM_P2
2023/09/10 00:00:13;;;;;;;15.63;9.43;;;;;;;;;;5010176;28;20053;-70
2023/09/10 00:02:39;;;;;;;14.20;8.77;;;;;;;;;;5010324;28;20061;-70
2023/09/10 00:05:07;;;;;;;16.33;9.10;;;;;;;;;;5010502;28;20042;-71
2023/09/10 00:07:34;;;;;;;15.15;8.73;;;;;;;;;;5010385;28;20144;-71
2023/09/10 00:10:02;;;;;;;13.82;9.23;;;;;;;;;;5010150;28;20056;-70
2023/09/10 00:12:28;;;;;;;18.58;9.40;;;;;;;;;;5009839;28;20073;-70
2023/09/10 00:14:55;;;;;;;16.92;9.18;;;;;;;;;;5012640;28;20052;-70
2023/09/10 00:17:22;;;;;;;14.73;9.52;;;;;;;;;;5014282;28;20049;-70
2023/09/10 00:19:48;;;;;;;15.00;9.68;;;;;;;;;;5014061;28;20046;-71
2023/09/10 00:22:15;;;;;;;13.63;8.85;;;;;;;;;;5013695;28;20046;-70
2023/09/10 00:24:41;;;;;;;13.77;9.07;;;;;;;;;;5013833;28;20084;-70
2023/09/10 00:27:10;;;;;;;14.43;9.70;;;;;;;;;;5013849;28;20046;-70
2023/09/10 00:29:36;;;;;;;17.95;9.45;;;;;;;;;;5013716;28;20105;-70
2023/09/10 00:32:03;;;;;;;15.45;9.57;;;;;;;;;;5013342;28;20046;-70
2023/09/10 00:34:32;;;;;;;15.82;9.43;;;;;;;;;;5013662;28;20137;-70
2023/09/10 00:36:59;;;;;;;14.68;9.57;;;;;;;;;;5013585;28;20048;-70
2023/09/10 00:39:26;;;;;;;14.23;8.55;;;;;;;;;;5013624;28;20046;-70
2023/09/10 00:41:53;;;;;;;13.15;8.30;;;;;;;;;;5013207;28;20046;-71
2023/09/10 00:44:23;;;;;;;19.25;9.75;;;;;;;;;;5013500;28;20072;-70
2023/09/10 00:46:50;;;;;;;14.65;8.95;;;;;;;;;;5013736;28;20492;-70
2023/09/10 00:49:16;;;;;;;14.55;8.50;;;;;;;;;;5013593;28;20408;-70
2023/09/10 00:51:44;;;;;;;13.80;9.07;;;;;;;;;;5013149;28;20046;-70
2023/09/10 00:54:11;;;;;;;13.30;8.10;;;;;;;;;;5013687;28;20041;-70
2023/09/10 00:56:38;;;;;;;15.18;8.27;;;;;;;;;;5013305;28;20159;-69
2023/09/10 00:59:05;;;;;;;14.20;8.55;;;;;;;;;;5013429;28;20514;-70
2023/09/10 01:01:33;;;;;;;12.23;8.70;;;;;;;;;;5013139;28;20057;-70
2023/09/10 01:03:59;;;;;;;12.75;8.45;;;;;;;;;;5013365;28;20046;-71
2023/09/10 01:06:26;;;;;;;13.52;8.98;;;;;;;;;;5013297;28;20133;-70
2023/09/10 01:08:52;;;;;;;17.65;9.50;;;;;;;;;;5013207;28;20073;-70
2023/09/10 01:11:25;;;;;;;14.30;9.30;;;;;;;;;;5012801;28;20052;-70
2023/09/10 01:14:02;;;;;;;16.80;9.30;;;;;;;;;;5013542;28;20057;-71
2023/09/10 01:16:37;;;;;;;13.75;8.93;;;;;;;;;;5013286;28;20054;-70
2023/09/10 01:19:08;;;;;;;14.32;8.80;;;;;;;;;;5013122;28;20056;-71
2023/09/10 01:21:45;;;;;;;12.85;8.75;;;;;;;;;;5012440;28;20057;-70
2023/09/10 01:24:24;;;;;;;11.85;8.85;;;;;;;;;;5012943;28;20491;-70
2023/09/10 01:26:59;;;;;;;13.77;9.30;;;;;;;;;;5013053;28;20129;-70
2023/09/10 01:29:26;;;;;;;11.30;8.40;;;;;;;;;;5012838;28;20125;-70
2023/09/10 01:31:58;;;;;;;13.07;9.23;;;;;;;;;;5012125;28;20093;-69
2023/09/10 01:34:28;;;;;;;14.73;10.63;;;;;;;;;;5012994;28;20419;-70
2023/09/10 01:37:00;;;;;;;13.52;8.98;;;;;;;;;;5012807;28;20054;-69
2023/09/10 01:39:35;;;;;;;;;;;;;;;;;;5013333;28;20053;-70
2023/09/10 01:42:05;;;;;;;13.32;8.82;;;;;;;;;;5012433;28;19922;-70
2023/09/10 01:44:33;;;;;;;10.98;8.63;;;;;;;;;;5012397;28;20100;-70
2023/09/10 01:47:00;;;;;;;13.40;8.55;;;;;;;;;;5012834;28;20041;-70
2023/09/10 01:49:27;;;;;;;12.20;8.13;;;;;;;;;;5012507;28;20050;-70
2023/09/10 01:51:54;;;;;;;14.98;8.70;;;;;;;;;;5011898;28;20050;-70
2023/09/10 01:54:20;;;;;;;14.82;9.52;;;;;;;;;;5012263;28;20049;-70
2023/09/10 01:56:47;;;;;;;18.52;9.10;;;;;;;;;;5012234;28;20061;-71
2023/09/10 01:59:15;;;;;;;13.00;9.20;;;;;;;;;;5011893;28;20056;-70
2023/09/10 02:01:41;;;;;;;20.77;9.65;;;;;;;;;;5011922;28;20468;-69
2023/09/10 02:04:08;;;;;;;13.65;9.85;;;;;;;;;;5012097;28;20052;-70
2023/09/10 02:06:34;;;;;;;15.68;9.95;;;;;;;;;;5012292;28;20056;-70
2023/09/10 02:09:01;;;;;;;12.60;9.15;;;;;;;;;;5012025;28;20125;-70
2023/09/10 02:11:28;;;;;;;12.27;9.30;;;;;;;;;;5011395;28;20141;-69
2023/09/10 02:13:54;;;;;;;13.55;9.35;;;;;;;;;;5012042;28;20050;-70
2023/09/10 02:16:22;;;;;;;13.68;9.02;;;;;;;;;;5012147;28;20046;-70
2023/09/10 02:18:49;;;;;;;13.05;9.48;;;;;;;;;;5012149;28;20045;-70
2023/09/10 02:21:15;;;;;;;16.63;9.52;;;;;;;;;;5011874;28;20049;-70
2023/09/10 02:23:43;;;;;;;12.98;8.77;;;;;;;;;;5011763;28;20137;-70
2023/09/10 02:26:09;;;;;;;11.00;8.50;;;;;;;;;;5011554;28;20046;-71
2023/09/10 02:28:36;;;;;;;12.77;8.98;;;;;;;;;;5011777;28;20077;-68
2023/09/10 02:31:06;;;;;;;10.73;8.32;;;;;;;;;;5011569;28;20049;-70
2023/09/10 02:33:35;;;;;;;13.55;8.45;;;;;;;;;;5011568;28;20049;-70
2023/09/10 02:36:02;;;;;;;12.25;8.50;;;;;;;;;;5011305;28;20054;-70
2023/09/10 02:38:28;;;;;;;12.93;8.48;;;;;;;;;;5011427;28;20129;-70
2023/09/10 02:40:55;;;;;;;15.13;8.57;;;;;;;;;;5012311;28;20071;-70
2023/09/10 02:43:22;;;;;;;13.32;8.73;;;;;;;;;;5011498;28;20050;-71
2023/09/10 02:45:49;;;;;;;14.13;8.68;;;;;;;;;;5011923;28;20050;-70
2023/09/10 02:48:15;;;;;;;12.63;9.02;;;;;;;;;;5011500;28;20042;-70
2023/09/10 02:50:43;;;;;;;13.68;9.27;;;;;;;;;;5010961;28;20052;-70
2023/09/10 02:53:10;;;;;;;10.57;8.75;;;;;;;;;;5010853;28;20571;-70
2023/09/10 02:55:36;;;;;;;13.10;8.85;;;;;;;;;;5011419;28;20079;-70
2023/09/10 02:58:03;;;;;;;12.98;9.13;;;;;;;;;;5011308;28;20050;-70
2023/09/10 03:00:30;;;;;;;11.52;8.70;;;;;;;;;;5011046;28;20500;-69
2023/09/10 03:02:57;;;;;;;11.13;8.38;;;;;;;;;;5010730;28;20491;-69
2023/09/10 03:05:24;;;;;;;10.13;8.30;;;;;;;;;;5010982;28;20042;-69
2023/09/10 03:07:53;;;;;;;12.38;8.35;;;;;;;;;;5010784;28;20046;-69
2023/09/10 03:10:20;;;;;;;14.82;9.23;;;;;;;;;;5011341;28;20132;-69
2023/09/10 03:12:47;;;;;;;14.77;9.73;;;;;;;;;;5010473;28;20046;-67
2023/09/10 03:15:14;;;;;;;14.63;8.68;;;;;;;;;;5010863;28;20050;-67
2023/09/10 03:17:41;;;;;;;14.48;9.45;;;;;;;;;;5011230;28;20046;-67
2023/09/10 03:20:09;;;;;;;18.58;9.00;;;;;;;;;;5011099;28;20048;-67
2023/09/10 03:22:36;;;;;;;12.80;8.43;;;;;;;;;;5010336;28;20057;-67
2023/09/10 03:25:05;;;;;;;15.30;9.85;;;;;;;;;;5010798;28;20419;-67
2023/09/10 03:27:31;;;;;;;15.15;8.18;;;;;;;;;;5010663;28;20049;-67
2023/09/10 03:29:58;;;;;;;13.15;8.75;;;;;;;;;;5010631;28;20049;-67
2023/09/10 03:32:24;;;;;;;11.73;7.93;;;;;;;;;;5010204;28;20048;-67
2023/09/10 03:34:51;;;;;;;12.95;9.23;;;;;;;;;;5010645;28;20045;-67
2023/09/10 03:37:17;;;;;;;11.38;8.20;;;;;;;;;;5010508;28;20054;-67
2023/09/10 03:39:44;;;;;;;11.00;8.50;;;;;;;;;;5010426;28;20046;-67
2023/09/10 03:42:12;;;;;;;11.52;8.30;;;;;;;;;;5010086;28;20054;-67
2023/09/10 03:44:38;;;;;;;15.13;8.27;;;;;;;;;;5010378;28;20046;-67
2023/09/10 03:47:05;;;;;;;15.52;8.88;;;;;;;;;;5010284;28;20046;-67
2023/09/10 03:49:31;;;;;;;10.85;8.57;;;;;;;;;;5010258;28;20046;-67
2023/09/10 03:51:58;;;;;;;14.43;8.52;;;;;;;;;;5010016;28;20087;-67
2023/09/10 03:54:25;;;;;;;13.52;8.65;;;;;;;;;;5010424;28;20050;-67
2023/09/10 03:56:52;;;;;;;11.68;9.00;;;;;;;;;;5010470;28;20045;-67
2023/09/10 03:59:20;;;;;;;12.63;7.97;;;;;;;;;;5010394;28;20403;-67
2023/09/10 04:01:47;;;;;;;9.95;8.05;;;;;;;;;;5010523;28;20464;-67
2023/09/10 04:04:14;;;;;;;11.70;7.95;;;;;;;;;;5010242;28;20042;-67
2023/09/10 04:06:40;;;;;;;11.93;9.13;;;;;;;;;;5010672;28;20373;-67
2023/09/10 04:09:07;;;;;;;10.57;8.55;;;;;;;;;;5010692;28;20403;-67
2023/09/10 04:11:34;;;;;;;13.50;8.48;;;;;;;;;;5009776;28;20052;-67
2023/09/10 04:14:00;;;;;;;13.00;8.45;;;;;;;;;;5010445;28;20048;-67
2023/09/10 04:16:28;;;;;;;12.65;9.15;;;;;;;;;;5010008;28;20041;-68
2023/09/10 04:18:55;;;;;;;12.90;8.73;;;;;;;;;;5010266;28;20466;-67
2023/09/10 04:21:22;;;;;;;12.93;8.50;;;;;;;;;;5009815;28;20052;-67
2023/09/10 04:23:48;;;;;;;12.23;8.10;;;;;;;;;;5010116;28;20129;-67
2023/09/10 04:26:15;;;;;;;14.50;8.82;;;;;;;;;;5010037;28;20046;-67
2023/09/10 04:28:41;;;;;;;11.20;8.77;;;;;;;;;;5010436;28;20046;-67
2023/09/10 04:31:14;;;;;;;15.48;9.05;;;;;;;;;;5009718;28;20101;-67
2023/09/10 04:33:42;;;;;;;11.50;8.30;;;;;;;;;;5009791;28;20517;-67
2023/09/10 04:36:10;;;;;;;13.07;8.88;;;;;;;;;;5010066;28;20435;-67
2023/09/10 04:38:36;;;;;;;16.33;9.32;;;;;;;;;;5010019;28;20049;-67
2023/09/10 04:41:03;;;;;;;16.40;9.32;;;;;;;;;;5009677;28;20042;-67
2023/09/10 04:43:29;;;;;;;18.42;10.50;;;;;;;;;;5009609;28;20052;-67
2023/09/10 04:45:56;;;;;;;19.55;9.82;;;;;;;;;;5010160;28;20133;-67
2023/09/10 04:48:22;;;;;;;19.27;10.07;;;;;;;;;;5009786;28;20053;-67
2023/09/10 04:50:50;;;;;;;17.88;10.25;;;;;;;;;;5009941;28;20516;-67
2023/09/10 04:53:17;;;;;;;18.20;10.57;;;;;;;;;;5009644;28;20625;-67
2023/09/10 04:55:44;;;;;;;19.38;9.93;;;;;;;;;;5009724;28;20046;-67
2023/09/10 04:58:11;;;;;;;13.90;10.55;;;;;;;;;;5009494;28;20510;-68
2023/09/10 05:00:40;;;;;;;15.82;10.48;;;;;;;;;;5011746;28;20050;-68
2023/09/10 05:03:07;;;;;;;17.13;10.10;;;;;;;;;;5013055;28;20065;-68
2023/09/10 05:05:33;;;;;;;13.80;8.93;;;;;;;;;;5013511;28;20042;-67
2023/09/10 05:08:01;;;;;;;16.70;9.13;;;;;;;;;;5013459;28;20410;-67
2023/09/10 05:10:29;;;;;;;14.57;9.65;;;;;;;;;;5013155;28;20071;-68
2023/09/10 05:12:56;;;;;;;17.20;10.07;;;;;;;;;;5012348;28;20585;-68
2023/09/10 05:15:22;;;;;;;13.68;8.70;;;;;;;;;;5013348;28;20440;-68
2023/09/10 05:17:49;;;;;;;16.85;9.23;;;;;;;;;;5013366;28;20050;-68
2023/09/10 05:20:16;;;;;;;14.63;8.90;;;;;;;;;;5013495;28;20072;-68
2023/09/10 05:22:42;;;;;;;14.65;9.27;;;;;;;;;;5012667;28;20050;-68
2023/09/10 05:25:10;;;;;;;16.95;9.90;;;;;;;;;;5012718;28;20137;-68
2023/09/10 05:27:37;;;;;;;16.27;9.95;;;;;;;;;;5013218;28;20475;-68
2023/09/10 05:30:05;;;;;;;16.55;10.18;;;;;;;;;;5013005;28;20487;-67
2023/09/10 05:32:32;;;;;;;13.40;9.70;;;;;;;;;;5012529;28;20518;-67
2023/09/10 05:34:58;;;;;;;19.02;9.30;;;;;;;;;;5012871;28;20053;-67
2023/09/10 05:37:25;;;;;;;16.92;9.77;;;;;;;;;;5012960;28;20046;-67
2023/09/10 05:39:51;;;;;;;13.85;9.48;;;;;;;;;;5012581;28;20042;-68
2023/09/10 05:42:19;;;;;;;14.68;9.57;;;;;;;;;;5012399;28;20054;-67
2023/09/10 05:44:46;;;;;;;17.15;9.60;;;;;;;;;;5013020;28;20419;-67
2023/09/10 05:47:13;;;;;;;18.13;10.05;;;;;;;;;;5012536;28;20041;-67
2023/09/10 05:49:40;;;;;;;17.20;10.02;;;;;;;;;;5012312;28;20049;-67
2023/09/10 05:52:06;;;;;;;14.57;9.80;;;;;;;;;;5011962;28;20415;-67
2023/09/10 05:54:33;;;;;;;13.02;9.90;;;;;;;;;;5012150;28;20064;-67
2023/09/10 05:56:59;;;;;;;16.55;10.13;;;;;;;;;;5012418;28;20045;-67
2023/09/10 05:59:27;;;;;;;15.75;9.85;;;;;;;;;;5012083;28;20046;-67
2023/09/10 06:01:54;;;;;;;12.43;9.60;;;;;;;;;;5011897;28;20050;-67
2023/09/10 06:04:20;;;;;;;13.98;9.18;;;;;;;;;;5012158;28;20184;-67
2023/09/10 06:06:47;;;;;;;13.07;9.25;;;;;;;;;;5012082;28;20133;-67
2023/09/10 06:09:14;;;;;;;13.45;10.27;;;;;;;;;;5011834;28;20045;-68
2023/09/10 06:11:40;;;;;;;12.95;9.90;;;;;;;;;;5010635;28;20046;-68
2023/09/10 06:14:07;;;;;;;14.48;9.90;;;;;;;;;;5011785;28;20052;-67
2023/09/10 06:16:35;;;;;;;13.32;10.88;;;;;;;;;;5012098;28;20411;-67
2023/09/10 06:19:01;;;;;;;17.23;10.75;;;;;;;;;;5011806;28;20050;-67
2023/09/10 06:21:29;;;;;;;15.38;11.05;;;;;;;;;;5011765;28;20480;-67
2023/09/10 06:23:56;;;;;;;21.23;11.57;;;;;;;;;;5012147;28;20509;-67
2023/09/10 06:26:22;;;;;;;16.85;11.05;;;;;;;;;;5012182;28;20060;-67
2023/09/10 06:28:49;;;;;;;13.95;11.15;;;;;;;;;;5011775;28;20050;-67
2023/09/10 06:31:16;;;;;;;18.00;12.10;;;;;;;;;;5011620;28;20050;-67
2023/09/10 06:33:43;;;;;;;14.00;11.45;;;;;;;;;;5011237;28;20046;-67
2023/09/10 06:36:10;;;;;;;16.13;11.32;;;;;;;;;;5011451;28;20046;-67
2023/09/10 06:38:37;;;;;;;16.48;12.07;;;;;;;;;;5011662;28;20056;-67
2023/09/10 06:41:03;;;;;;;16.75;10.77;;;;;;;;;;5011464;28;20046;-67
2023/09/10 06:43:31;;;;;;;13.68;11.68;;;;;;;;;;5011312;28;20046;-67
2023/09/10 06:45:57;;;;;;;15.77;10.02;;;;;;;;;;5011585;28;20115;-67
2023/09/10 06:48:24;;;;;;;14.77;10.23;;;;;;;;;;5011376;28;20042;-67
2023/09/10 06:50:52;;;;;;;14.63;10.80;;;;;;;;;;5011030;28;20045;-67
2023/09/10 06:53:18;;;;;;;15.02;10.90;;;;;;;;;;5011123;28;20491;-67
2023/09/10 06:55:45;;;;;;;16.83;10.65;;;;;;;;;;5011395;28;20518;-67
2023/09/10 06:58:14;;;;;;;15.20;10.77;;;;;;;;;;5011636;28;20510;-67
2023/09/10 07:00:40;;;;;;;15.43;10.95;;;;;;;;;;5011133;28;20053;-67
2023/09/10 07:03:08;;;;;;;15.15;11.20;;;;;;;;;;5011167;28;20054;-67
2023/09/10 07:05:34;;;;;;;12.55;10.18;;;;;;;;;;5011636;28;20046;-67
2023/09/10 07:08:02;;;;;;;18.60;11.88;;;;;;;;;;5011507;28;20056;-67
2023/09/10 07:10:29;;;;;;;16.50;10.30;;;;;;;;;;5011378;28;20492;-67
2023/09/10 07:12:55;;;;;;;14.82;10.98;;;;;;;;;;5010891;28;20046;-67
2023/09/10 07:15:22;;;;;;;15.18;11.85;;;;;;;;;;5010957;28;20288;-67
2023/09/10 07:17:49;;;;;;;15.95;11.18;;;;;;;;;;5011059;28;20384;-67
2023/09/10 07:20:16;;;;;;;14.50;10.20;;;;;;;;;;5011205;28;20050;-67
2023/09/10 07:22:43;;;;;;;15.98;11.10;;;;;;;;;;5010270;28;20426;-67
2023/09/10 07:25:11;;;;;;;14.43;10.52;;;;;;;;;;5010726;28;20056;-67
2023/09/10 07:27:37;;;;;;;21.00;11.30;;;;;;;;;;5010837;28;20551;-67
2023/09/10 07:30:05;;;;;;;15.02;11.45;;;;;;;;;;5011004;28;20076;-67
2023/09/10 07:32:31;;;;;;;13.70;10.98;;;;;;;;;;5010463;28;20403;-67
2023/09/10 07:34:58;;;;;;;14.98;10.77;;;;;;;;;;5010947;28;20489;-67
2023/09/10 07:37:25;;;;;;;16.83;11.10;;;;;;;;;;5010793;28;20140;-67
2023/09/10 07:39:51;;;;;;;14.05;11.13;;;;;;;;;;5010914;28;20156;-67
2023/09/10 07:42:19;;;;;;;18.35;10.82;;;;;;;;;;5010176;28;20396;-67
2023/09/10 07:44:46;;;;;;;15.32;9.57;;;;;;;;;;5010507;28;20041;-67
2023/09/10 07:47:12;;;;;;;14.95;10.57;;;;;;;;;;5010527;28;20050;-67
2023/09/10 07:49:39;;;;;;;14.75;10.52;;;;;;;;;;5010853;28;20419;-67
2023/09/10 07:52:06;;;;;;;11.75;10.00;;;;;;;;;;5010114;28;20046;-67
2023/09/10 07:54:35;;;;;;;11.52;9.82;;;;;;;;;;5010435;28;20049;-67
2023/09/10 07:57:03;;;;;;;13.77;10.25;;;;;;;;;;5010842;28;20050;-67
2023/09/10 07:59:31;;;;;;;12.75;9.73;;;;;;;;;;5010381;28;20408;-67
2023/09/10 08:01:57;;;;;;;13.85;10.15;;;;;;;;;;5010070;28;20060;-66
2023/09/10 08:04:24;;;;;;;16.10;10.18;;;;;;;;;;5010600;28;20481;-67
2023/09/10 08:06:50;;;;;;;12.25;9.52;;;;;;;;;;5010644;28;20480;-67
2023/09/10 08:09:17;;;;;;;16.63;10.88;;;;;;;;;;5010367;28;20072;-67
2023/09/10 08:11:43;;;;;;;14.52;11.40;;;;;;;;;;5010292;28;20068;-67
2023/09/10 08:14:10;;;;;;;12.45;9.25;;;;;;;;;;5010468;28;20072;-67
2023/09/10 08:16:38;;;;;;;10.85;8.77;;;;;;;;;;5010517;28;20132;-67
2023/09/10 08:19:04;;;;;;;10.75;8.85;;;;;;;;;;5010332;28;20046;-67
2023/09/10 08:21:31;;;;;;;12.80;9.50;;;;;;;;;;5009828;28;20046;-67
2023/09/10 08:23:58;;;;;;;12.23;9.20;;;;;;;;;;5010396;28;20056;-67
2023/09/10 08:26:24;;;;;;;13.23;9.40;;;;;;;;;;5010459;28;20052;-68
2023/09/10 08:28:51;;;;;;;15.80;8.68;;;;;;;;;;5010555;28;20042;-68
2023/09/10 08:31:17;;;;;;;12.32;9.18;;;;;;;;;;5010009;28;20133;-68
2023/09/10 08:33:45;;;;;;;12.82;8.48;;;;;;;;;;5009832;28;20056;-67
2023/09/10 08:36:12;;;;;;;12.32;8.10;;;;;;;;;;5013750;28;20049;-67
2023/09/10 08:38:39;;;;;;;13.52;8.80;;;;;;;;;;5013953;28;20140;-67
2023/09/10 08:41:13;;;;;;;8.85;7.60;;;;;;;;;;5013601;28;20045;-68
2023/09/10 08:43:46;;;;;;;14.20;8.15;;;;;;;;;;5013703;28;20060;-68
2023/09/10 08:46:14;;;;;;;12.02;7.57;;;;;;;;;;5014095;28;20484;-68
2023/09/10 08:48:42;;;;;;;15.32;7.95;;;;;;;;;;5013408;28;20046;-67
2023/09/10 08:51:12;;;;;;;13.63;8.20;;;;;;;;;;5013322;28;20046;-67
2023/09/10 08:53:39;;;;;;;12.43;7.80;;;;;;;;;;5012972;28;20054;-67
2023/09/10 08:56:08;;;;;;;10.32;7.93;;;;;;;;;;5013864;28;20045;-67
2023/09/10 09:01:12;;;;;;;11.90;7.03;;;;;;;;;;4973692;28;20047;-70
2023/09/10 09:03:39;;;;;;;11.73;7.72;;;;;;;;;;4975597;28;20086;-69
2023/09/10 09:06:06;;;;;;;12.30;7.95;;;;;;;;;;4974984;28;20073;-70
2023/09/10 09:08:36;;;;;;;10.90;7.65;;;;;;;;;;4975150;28;20046;-70
2023/09/10 09:11:04;;;;;;;10.63;7.20;;;;;;;;;;4975374;28;20512;-70
2023/09/10 09:13:35;;;;;;;9.38;7.28;;;;;;;;;;4975126;28;20381;-70
2023/09/10 09:16:03;;;;;;;12.57;7.35;;;;;;;;;;4974881;28;20054;-70
2023/09/10 09:18:31;;;;;;;8.65;6.85;;;;;;;;;;4975062;28;20053;-70
2023/09/10 09:21:03;;;;;;;10.52;7.40;;;;;;;;;;4974887;28;20464;-70
2023/09/10 09:23:37;;;;;;;9.10;7.28;;;;;;;;;;4974722;28;20097;-69
2023/09/10 09:26:04;;;;;;;11.95;7.68;;;;;;;;;;4974556;28;20043;-70
2023/09/10 09:28:32;;;;;;;12.05;7.70;;;;;;;;;;4974786;28;20435;-70
2023/09/10 09:30:59;;;;;;;12.50;7.90;;;;;;;;;;4974734;28;20047;-70
2023/09/10 09:33:25;;;;;;;8.80;6.78;;;;;;;;;;4974717;28;20047;-71
2023/09/10 09:35:52;;;;;;;9.57;6.82;;;;;;;;;;4974637;28;20129;-70
2023/09/10 09:38:21;;;;;;;9.98;6.63;;;;;;;;;;4974070;28;20050;-70
2023/09/10 09:40:49;;;;;;;9.55;7.15;;;;;;;;;;4974197;28;20053;-70
2023/09/10 09:43:16;;;;;;;11.75;7.28;;;;;;;;;;4974385;28;20057;-70
2023/09/10 09:45:48;;;;;;;9.80;7.03;;;;;;;;;;4975704;28;20057;-70
2023/09/10 09:48:15;;;;;;;12.52;7.20;;;;;;;;;;4974281;28;20544;-70
2023/09/10 09:50:41;;;;;;;12.38;7.63;;;;;;;;;;4974288;28;20049;-70
2023/09/10 09:53:08;;;;;;;9.07;6.30;;;;;;;;;;4974308;28;20393;-70
2023/09/10 09:55:35;;;;;;;9.55;6.93;;;;;;;;;;4974412;28;20069;-70
2023/09/10 09:58:05;;;;;;;9.75;6.85;;;;;;;;;;4974461;28;20412;-70
2023/09/10 10:00:33;;;;;;;13.48;6.85;;;;;;;;;;4973771;28;20077;-70
2023/09/10 10:03:00;;;;;;;11.77;6.15;;;;;;;;;;4974172;28;20043;-70
2023/09/10 10:05:27;;;;;;;14.45;6.82;;;;;;;;;;4974252;28;20055;-70
2023/09/10 10:07:53;;;;;;;12.65;6.53;;;;;;;;;;4974332;28;20053;-70
2023/09/10 10:10:20;;;;;;;9.45;6.40;;;;;;;;;;4974280;28;20436;-70
2023/09/10 10:12:47;;;;;;;13.40;6.35;;;;;;;;;;4974028;28;20054;-70
2023/09/10 10:15:16;;;;;;;11.30;6.22;;;;;;;;;;4973935;28;20404;-70
2023/09/10 10:17:43;;;;;;;10.73;6.18;;;;;;;;;;4973911;28;20415;-70
2023/09/10 10:20:10;;;;;;;10.27;6.05;;;;;;;;;;4973931;28;20046;-70
2023/09/10 10:22:37;;;;;;;11.10;5.70;;;;;;;;;;4973739;28;20058;-70
2023/09/10 10:25:05;;;;;;;11.48;5.57;;;;;;;;;;4973826;28;20051;-70
2023/09/10 10:27:33;;;;;;;8.20;4.82;;;;;;;;;;4973712;28;20492;-70
2023/09/10 10:29:59;;;;;;;10.52;5.45;;;;;;;;;;4973557;28;20485;-70
2023/09/10 10:32:32;;;;;;;10.73;5.28;;;;;;;;;;4973611;28;20053;-69
2023/09/10 10:35:04;;;;;;;10.25;4.88;;;;;;;;;;4973722;28;20051;-70
2023/09/10 10:37:36;;;;;;;12.15;5.45;;;;;;;;;;4973432;28;20047;-70
2023/09/10 10:40:08;;;;;;;12.77;6.25;;;;;;;;;;4973260;28;20054;-70
2023/09/10 10:42:38;;;;;;;9.18;5.28;;;;;;;;;;4972833;28;20051;-70
2023/09/10 10:45:07;;;;;;;13.38;6.32;;;;;;;;;;4973335;28;20073;-70
2023/09/10 10:47:39;;;;;;;10.05;4.78;;;;;;;;;;4973229;28;20094;-70
2023/09/10 10:50:09;;;;;;;7.13;4.65;;;;;;;;;;4973106;28;20054;-70
2023/09/10 10:52:39;;;;;;;7.65;4.43;;;;;;;;;;4973184;28;20051;-70
2023/09/10 10:55:07;;;;;;;8.90;4.70;;;;;;;;;;4972763;28;20051;-70
2023/09/10 10:57:34;;;;;;;8.23;5.20;;;;;;;;;;4972498;28;20050;-70
2023/09/10 11:00:04;;;;;;;12.68;5.32;;;;;;;;;;4972977;28;20444;-70
2023/09/10 11:02:30;;;;;;;8.77;4.55;;;;;;;;;;4972897;28;20084;-70
2023/09/10 11:05:01;;;;;;;9.73;5.22;;;;;;;;;;4973097;28;20050;-70
2023/09/10 11:07:29;;;;;;;9.93;5.00;;;;;;;;;;4972859;28;20129;-70
2023/09/10 11:09:57;;;;;;;7.53;4.70;;;;;;;;;;4972938;28;20508;-70
2023/09/10 11:12:24;;;;;;;10.00;4.90;;;;;;;;;;4972909;28;20051;-70
2023/09/10 11:15:12;;;;;;;7.30;4.20;;;;;;;;;;4972467;28;20049;-70
2023/09/10 11:17:39;;;;;;;9.63;4.50;;;;;;;;;;4973027;28;20070;-70
2023/09/10 11:20:08;;;;;;;8.45;4.55;;;;;;;;;;4972593;28;20085;-70
2023/09/10 11:23:06;;;;;;;14.07;5.20;;;;;;;;;;4972724;28;20057;-70
2023/09/10 11:25:33;;;;;;;10.93;4.60;;;;;;;;;;4972219;28;20046;-70
2023/09/10 11:28:00;;;;;;;12.05;4.80;;;;;;;;;;4972873;28;20069;-70
2023/09/10 11:30:27;;;;;;;11.98;5.25;;;;;;;;;;4972590;28;20573;-70
2023/09/10 11:33:27;;;;;;;9.15;4.22;;;;;;;;;;4972654;28;20069;-70
2023/09/10 11:35:58;;;;;;;15.02;4.40;;;;;;;;;;4972903;28;20055;-70
2023/09/10 11:38:29;;;;;;;9.40;4.33;;;;;;;;;;4972826;28;20421;-70
2023/09/10 11:40:56;;;;;;;9.05;4.60;;;;;;;;;;4972348;28;20352;-70
2023/09/10 11:43:23;;;;;;;6.95;4.22;;;;;;;;;;4972565;28;20458;-70
2023/09/10 11:45:50;;;;;;;8.40;4.07;;;;;;;;;;4972203;28;20049;-69
2023/09/10 11:48:17;;;;;;;8.85;4.20;;;;;;;;;;4972552;28;20489;-70
2023/09/10 11:50:44;;;;;;;9.35;4.15;;;;;;;;;;4972071;28;20477;-70
2023/09/10 11:53:12;;;;;;;7.40;3.80;;;;;;;;;;4972359;28;20054;-70
2023/09/10 11:55:39;;;;;;;8.15;3.70;;;;;;;;;;4972003;28;20057;-70
2023/09/10 11:58:06;;;;;;;7.63;4.22;;;;;;;;;;4972445;28;20046;-69
2023/09/10 12:00:33;;;;;;;5.78;3.65;;;;;;;;;;4971954;28;20055;-69
2023/09/10 12:02:59;;;;;;;8.00;4.00;;;;;;;;;;4972228;28;20055;-69
2023/09/10 12:05:27;;;;;;;6.68;3.53;;;;;;;;;;4971876;28;20054;-69
2023/09/10 12:07:54;;;;;;;7.40;3.80;;;;;;;;;;4971825;28;20047;-69
2023/09/10 12:10:22;;;;;;;7.93;3.65;;;;;;;;;;4973798;28;20055;-71
2023/09/10 12:12:49;;;;;;;8.05;3.95;;;;;;;;;;4975698;28;20054;-69
2023/09/10 12:15:16;;;;;;;9.55;4.72;;;;;;;;;;4976291;28;20057;-69
2023/09/10 12:17:43;;;;;;;11.60;3.90;;;;;;;;;;4975886;28;20058;-69
2023/09/10 12:20:11;;;;;;;9.00;4.50;;;;;;;;;;4975607;28;20051;-69
2023/09/10 12:22:37;;;;;;;6.57;3.60;;;;;;;;;;4976332;28;20050;-69
2023/09/10 12:25:07;;;;;;;11.40;4.88;;;;;;;;;;4975803;28;20058;-69
2023/09/10 12:27:36;;;;;;;6.65;3.30;;;;;;;;;;4976112;28;20082;-69
2023/09/10 12:30:03;;;;;;;8.13;3.67;;;;;;;;;;4975801;28;20043;-69
2023/09/10 12:32:31;;;;;;;8.30;4.00;;;;;;;;;;4975427;28;20057;-69
2023/09/10 12:34:57;;;;;;;6.95;3.67;;;;;;;;;;4975445;28;20043;-70
2023/09/10 12:37:24;;;;;;;9.00;3.63;;;;;;;;;;4975495;28;20062;-69
2023/09/10 12:39:53;;;;;;;6.10;3.45;;;;;;;;;;4975618;28;20129;-69
2023/09/10 12:42:19;;;;;;;6.72;3.70;;;;;;;;;;4975654;28;20138;-69
2023/09/10 12:44:47;;;;;;;6.53;3.47;;;;;;;;;;4975086;28;20050;-69
2023/09/10 12:47:14;;;;;;;5.60;3.30;;;;;;;;;;4975542;28;20065;-69
2023/09/10 12:49:41;;;;;;;9.20;3.60;;;;;;;;;;4975546;28;20049;-70
2023/09/10 12:52:08;;;;;;;10.65;3.70;;;;;;;;;;4975341;28;20053;-69
2023/09/10 12:54:35;;;;;;;7.13;3.40;;;;;;;;;;4975514;28;20075;-69
2023/09/10 12:57:05;;;;;;;13.95;3.85;;;;;;;;;;4975551;28;20133;-70
2023/09/10 12:59:32;;;;;;;8.43;3.58;;;;;;;;;;4974738;28;20058;-71
2023/09/10 13:02:03;;;;;;;21.15;4.03;;;;;;;;;;4975460;28;20075;-70
2023/09/10 13:04:29;;;;;;;5.77;3.23;;;;;;;;;;4975685;28;20061;-70
2023/09/10 13:06:56;;;;;;;8.73;3.17;;;;;;;;;;4975514;28;20273;-70
2023/09/10 13:09:22;;;;;;;4.85;2.92;;;;;;;;;;4975668;28;20057;-71
2023/09/10 13:11:49;;;;;;;7.05;2.60;;;;;;;;;;4975477;28;20420;-71
2023/09/10 13:14:17;;;;;;;6.90;2.95;;;;;;;;;;4975078;28;20412;-71
2023/09/10 13:16:43;;;;;;;7.97;3.13;;;;;;;;;;4975082;28;20496;-71
2023/09/10 13:19:11;;;;;;;8.43;3.13;;;;;;;;;;4974742;28;20046;-71
2023/09/10 13:21:38;;;;;;;9.50;2.92;;;;;;;;;;4974402;28;20043;-71
2023/09/10 13:24:05;;;;;;;6.85;2.90;;;;;;;;;;4975163;28;20058;-71
2023/09/10 13:26:31;;;;;;;7.15;2.90;;;;;;;;;;4975013;28;20133;-71
2023/09/10 13:28:58;;;;;;;6.53;3.03;;;;;;;;;;4974695;28;20049;-71
2023/09/10 13:31:25;;;;;;;4.95;3.10;;;;;;;;;;4974820;28;20057;-71
2023/09/10 13:33:51;;;;;;;7.25;2.47;;;;;;;;;;4974752;28;20042;-71
2023/09/10 13:36:19;;;;;;;6.95;2.80;;;;;;;;;;4974903;28;20074;-71
2023/09/10 13:38:46;;;;;;;5.97;2.75;;;;;;;;;;4974421;28;20053;-71
2023/09/10 13:41:12;;;;;;;7.57;2.50;;;;;;;;;;4974564;28;20517;-71
2023/09/10 13:43:39;;;;;;;6.28;2.65;;;;;;;;;;4974446;28;20544;-71
2023/09/10 13:46:05;;;;;;;6.07;2.67;;;;;;;;;;4974665;28;20557;-71
2023/09/10 13:48:32;;;;;;;5.00;2.67;;;;;;;;;;4974222;28;20061;-71
2023/09/10 13:50:59;;;;;;;4.32;2.35;;;;;;;;;;4974189;28;20047;-71
2023/09/10 13:53:26;;;;;;;6.25;2.25;;;;;;;;;;4974643;28;20094;-71
2023/09/10 13:55:53;;;;;;;7.13;2.67;;;;;;;;;;4974211;28;20057;-69
2023/09/10 13:58:20;;;;;;;6.07;2.72;;;;;;;;;;4974050;28;20138;-69
2023/09/10 14:00:46;;;;;;;9.43;2.67;;;;;;;;;;4974348;28;20545;-69
2023/09/10 14:03:13;;;;;;;5.43;2.80;;;;;;;;;;4974433;28;20051;-69
2023/09/10 14:05:39;;;;;;;8.35;3.30;;;;;;;;;;4974038;28;20076;-69
2023/09/10 14:08:06;;;;;;;7.70;2.90;;;;;;;;;;4973975;28;20074;-70
2023/09/10 14:10:34;;;;;;;6.07;2.88;;;;;;;;;;4973714;28;20408;-69
2023/09/10 14:13:01;;;;;;;7.97;2.85;;;;;;;;;;4973952;28;20060;-70
2023/09/10 14:15:27;;;;;;;8.25;2.85;;;;;;;;;;4973928;28;20066;-70
2023/09/10 14:17:54;;;;;;;10.38;3.35;;;;;;;;;;4973698;28;20054;-70
2023/09/10 14:20:20;;;;;;;7.28;3.22;;;;;;;;;;4973775;28;20133;-70
2023/09/10 14:22:48;;;;;;;7.65;2.97;;;;;;;;;;4973720;28;20053;-70
2023/09/10 14:25:15;;;;;;;8.43;2.85;;;;;;;;;;4973455;28;20054;-70
2023/09/10 14:27:44;;;;;;;13.18;2.80;;;;;;;;;;4973901;28;20141;-70
2023/09/10 14:30:12;;;;;;;8.77;3.15;;;;;;;;;;4973411;28;20050;-70
2023/09/10 14:32:39;;;;;;;9.40;2.90;;;;;;;;;;4972847;28;20489;-70
2023/09/10 14:35:07;;;;;;;4.93;2.80;;;;;;;;;;4973799;28;20051;-70